Time;durP1;ratioP1;P1;durP2;ratioP2;P2;SDS_P1;SDS_P2;PMS_P1;PMS_P2;Temp;Humidity;BMP_temperature;BMP_pressure;BME280_temperature;BME280_humidity;BME280_pressure;Samples;Min_cycle;Max_cycle;Signal;HPM_P1;HPM_P2
2022/03/11 00:00:53;;;;;;;15.88;5.63;;;-6.30;84.00;;;;;;4175702;28;20029;-62
2022/03/11 00:02:54;;;;;;;9.77;3.92;;;-6.40;84.40;;;;;;4176706;28;20041;-48
2022/03/11 00:04:57;;;;;;;8.80;4.40;;;-6.50;84.60;;;;;;4175875;28;20033;-62
2022/03/11 00:06:58;;;;;;;10.55;4.30;;;-6.50;84.50;;;;;;4176580;28;20025;-76
2022/03/11 00:08:59;;;;;;;11.48;4.63;;;-6.50;84.40;;;;;;4171604;28;20037;-77
2022/03/11 00:11:00;;;;;;;8.82;4.40;;;-6.60;84.40;;;;;;4222422;22;20738;-47
2022/03/11 00:13:01;;;;;;;10.20;4.28;;;-6.50;84.00;;;;;;4173919;28;20469;-58
2022/03/11 00:15:06;;;;;;;8.60;4.18;;;-6.50;83.50;;;;;;4176049;28;20470;-58
2022/03/11 00:17:07;;;;;;;7.13;3.83;;;-6.50;83.60;;;;;;4634796;22;20053;-62
2022/03/11 00:21:19;;;;;;;;;;;-6.50;83.80;;;;;;4254573;22;20080;-49
2022/03/11 00:23:20;;;;;;;;;;;-6.50;83.60;;;;;;4176059;28;19917;-55
2022/03/11 00:25:21;;;;;;;7.15;3.33;;;-6.50;84.20;;;;;;4176554;28;19916;-53
2022/03/11 00:27:22;;;;;;;10.90;4.47;;;-6.50;84.70;;;;;;4175011;28;20091;-68
2022/03/11 00:29:24;;;;;;;9.88;4.70;;;-6.50;84.60;;;;;;4176976;28;20080;-61
2022/03/11 00:31:25;;;;;;;13.25;5.28;;;-6.50;85.30;;;;;;4173317;28;20049;-78
2022/03/11 00:33:26;;;;;;;11.77;4.80;;;-6.60;84.70;;;;;;4161306;28;20041;-83
2022/03/11 00:35:27;;;;;;;7.32;3.60;;;-6.60;84.70;;;;;;4158859;28;20095;-70
2022/03/11 00:37:28;;;;;;;8.80;4.68;;;-6.60;84.70;;;;;;4159469;28;20033;-52
2022/03/11 00:39:29;;;;;;;9.55;5.10;;;-6.60;84.80;;;;;;4159073;28;20029;-45
2022/03/11 00:41:31;;;;;;;7.97;3.50;;;-6.60;84.70;;;;;;4157000;28;20033;-63
2022/03/11 00:43:32;;;;;;;6.38;3.10;;;-6.60;83.90;;;;;;4159269;28;20119;-69
2022/03/11 00:45:33;;;;;;;7.30;3.78;;;-6.60;83.30;;;;;;4158507;28;20099;-48
2022/03/11 00:47:34;;;;;;;8.38;4.35;;;-6.50;82.70;;;;;;4160072;28;20485;-71
2022/03/11 00:49:36;;;;;;;6.00;2.80;;;-6.60;82.80;;;;;;4158990;28;20482;-56
2022/03/11 00:51:38;;;;;;;8.90;4.22;;;-6.60;82.20;;;;;;4157912;28;20041;-75
2022/03/11 00:53:39;;;;;;;5.72;2.95;;;-6.60;82.20;;;;;;4158309;28;20497;-63
2022/03/11 00:57:59;;;;;;;8.43;3.75;;;-6.60;82.60;;;;;;4178376;22;20118;-73
2022/03/11 01:02:04;;;;;;;11.45;4.05;;;-6.60;83.50;;;;;;4179731;22;20087;-66
2022/03/11 01:04:05;;;;;;;10.45;4.55;;;-6.60;84.40;;;;;;4174559;28;20130;-63
2022/03/11 01:06:06;;;;;;;8.07;4.03;;;-6.70;84.50;;;;;;4162116;28;20037;-65
2022/03/11 01:08:07;;;;;;;10.65;4.90;;;-6.60;84.90;;;;;;4158009;28;20035;-57
2022/03/11 01:10:09;;;;;;;7.60;3.78;;;-6.60;84.90;;;;;;4159255;28;20091;-62
2022/03/11 01:12:10;;;;;;;5.97;3.20;;;-6.60;83.80;;;;;;4156485;28;20080;-60
2022/03/11 01:14:11;;;;;;;7.97;3.42;;;-6.60;83.50;;;;;;4159718;28;20057;-59
2022/03/11 01:16:13;;;;;;;8.68;3.30;;;-6.60;83.60;;;;;;4157445;28;20037;-62
2022/03/11 01:18:14;;;;;;;6.95;3.47;;;-6.60;84.00;;;;;;4158763;28;20083;-59
2022/03/11 01:20:15;;;;;;;6.30;2.30;;;-6.60;83.90;;;;;;4159356;28;20018;-48
2022/03/11 01:22:17;;;;;;;6.78;3.22;;;-6.70;83.50;;;;;;4158269;28;20569;-42
2022/03/11 01:24:19;;;;;;;6.55;2.95;;;-6.70;83.80;;;;;;4157408;28;20107;-60
2022/03/11 01:26:20;;;;;;;6.45;2.88;;;-6.70;84.10;;;;;;4158785;28;20080;-42
2022/03/11 01:28:21;;;;;;;8.35;3.72;;;-6.70;84.50;;;;;;4158692;28;20075;-59
2022/03/11 01:30:22;;;;;;;8.38;3.70;;;-6.70;84.70;;;;;;4157901;28;20045;-50
2022/03/11 01:32:23;;;;;;;7.35;3.75;;;-6.70;84.80;;;;;;4159184;28;20076;-56
2022/03/11 01:34:24;;;;;;;6.60;3.13;;;-6.70;84.60;;;;;;4296389;22;20057;-56
2022/03/11 01:36:26;;;;;;;7.07;3.75;;;-6.70;85.00;;;;;;4174304;28;20072;-58
2022/03/11 01:38:27;;;;;;;9.70;4.03;;;-6.70;84.90;;;;;;4175544;28;20103;-68
2022/03/11 01:40:28;;;;;;;9.02;3.70;;;-6.70;85.40;;;;;;4173832;28;20025;-47
2022/03/11 01:42:29;;;;;;;6.97;3.50;;;-6.80;86.00;;;;;;4174199;28;20040;-59
2022/03/11 01:44:30;;;;;;;7.35;3.95;;;-6.80;85.80;;;;;;4174458;28;20078;-47
2022/03/11 01:46:32;;;;;;;11.50;4.68;;;-6.80;86.20;;;;;;4174171;28;20548;-62
2022/03/11 01:48:33;;;;;;;12.05;5.60;;;-6.80;86.00;;;;;;4174628;28;20435;-57
2022/03/11 01:50:35;;;;;;;14.10;5.43;;;-6.80;86.60;;;;;;4173881;28;20029;-43
2022/03/11 01:54:44;;;;;;;13.77;5.85;;;-6.80;86.60;;;;;;4177246;22;20122;-65
2022/03/11 01:56:45;;;;;;;13.50;5.47;;;-6.80;86.50;;;;;;4173449;28;20071;-55
2022/03/11 01:58:50;;;;;;;13.40;5.20;;;-6.80;86.00;;;;;;4174884;28;20033;-46
2022/03/11 02:00:52;;;;;;;14.63;4.85;;;-6.90;85.80;;;;;;4171748;28;20521;-50
2022/03/11 02:02:53;;;;;;;14.20;5.57;;;-6.90;86.20;;;;;;4172705;28;20102;-63
2022/03/11 02:04:54;;;;;;;14.30;5.85;;;-6.90;86.70;;;;;;4173390;28;20071;-63
2022/03/11 02:06:57;;;;;;;16.15;5.75;;;-6.90;87.50;;;;;;4174408;28;20047;-56
2022/03/11 02:09:01;;;;;;;15.82;6.38;;;-7.00;88.00;;;;;;4170113;28;20083;-53
2022/03/11 02:11:02;;;;;;;16.63;6.00;;;-7.00;88.60;;;;;;4173676;28;20521;-46
2022/03/11 02:13:08;;;;;;;12.18;5.65;;;-7.10;88.20;;;;;;4173671;28;20138;-52
2022/03/11 02:15:10;;;;;;;14.35;5.25;;;-7.00;88.10;;;;;;4174705;28;20090;-57
2022/03/11 02:17:11;;;;;;;11.90;5.22;;;-7.00;87.90;;;;;;4173330;28;20087;-51
2022/03/11 02:19:12;;;;;;;15.18;5.90;;;-7.10;88.20;;;;;;4174232;28;20083;-59
2022/03/11 02:21:15;;;;;;;11.48;5.20;;;-7.10;88.10;;;;;;4173885;28;20071;-50
2022/03/11 02:23:18;;;;;;;13.77;5.57;;;-7.10;88.30;;;;;;4172839;28;20057;-56
2022/03/11 02:25:19;;;;;;;16.05;5.80;;;-7.10;88.50;;;;;;4174272;28;20025;-64
2022/03/11 02:27:21;;;;;;;17.08;6.45;;;-7.20;89.20;;;;;;4164052;28;20029;-56
2022/03/11 02:29:23;;;;;;;12.98;5.63;;;-7.20;89.80;;;;;;4158090;28;20025;-59
2022/03/11 02:31:27;;;;;;;16.67;6.90;;;-7.20;89.90;;;;;;4157207;28;20049;-70
2022/03/11 02:33:28;;;;;;;19.90;7.72;;;-7.30;89.80;;;;;;4158385;28;20109;-62
2022/03/11 02:35:30;;;;;;;20.02;7.00;;;-7.30;90.10;;;;;;4156973;28;20087;-61
2022/03/11 02:37:31;;;;;;;15.18;5.32;;;-7.40;90.10;;;;;;4158351;28;20548;-60
2022/03/11 02:39:32;;;;;;;15.48;6.43;;;-7.40;90.20;;;;;;4179821;22;20053;-73
2022/03/11 02:41:33;;;;;;;18.27;6.60;;;-7.40;90.20;;;;;;4330550;22;20064;-44
2022/03/11 02:43:36;;;;;;;18.55;7.75;;;-7.40;90.30;;;;;;4189315;28;20544;-62
2022/03/11 02:45:37;;;;;;;16.35;6.72;;;-7.50;90.50;;;;;;4189937;28;20461;-71
2022/03/11 02:47:38;;;;;;;13.20;6.18;;;-7.50;90.60;;;;;;4182301;28;20059;-70
2022/03/11 02:49:39;;;;;;;17.70;6.18;;;-7.50;90.70;;;;;;4215639;22;20053;-56
2022/03/11 02:51:40;;;;;;;16.80;5.38;;;-7.50;90.50;;;;;;4172897;28;20074;-45
2022/03/11 02:53:42;;;;;;;8.82;4.95;;;-7.60;90.50;;;;;;4155831;28;20042;-55
2022/03/11 02:55:44;;;;;;;9.30;4.38;;;-7.60;90.90;;;;;;4155242;28;20092;-57
2022/03/11 02:59:57;;;;;;;11.30;4.38;;;-7.60;90.50;;;;;;4188177;28;20056;-64
2022/03/11 03:01:59;;;;;;;11.38;4.55;;;-7.70;90.30;;;;;;4170117;28;20051;-58
2022/03/11 03:04:00;;;;;;;9.95;4.43;;;-7.70;90.20;;;;;;4190164;28;20094;-68
2022/03/11 03:06:01;;;;;;;12.82;5.57;;;-7.70;90.50;;;;;;4188686;28;20799;-73
2022/03/11 03:08:02;;;;;;;11.05;4.97;;;-7.70;90.80;;;;;;4191151;28;20365;-66
2022/03/11 03:10:04;;;;;;;12.90;5.57;;;-7.70;92.30;;;;;;4189796;28;20032;-42
2022/03/11 03:12:05;;;;;;;18.42;6.18;;;-7.80;92.60;;;;;;4189450;28;20033;-68
2022/03/11 03:14:06;;;;;;;13.23;6.50;;;-7.80;92.90;;;;;;4245660;22;20057;-52
2022/03/11 03:16:07;;;;;;;13.02;5.47;;;-7.80;93.50;;;;;;4154512;28;20044;-58
2022/03/11 03:18:09;;;;;;;10.43;5.47;;;-7.90;93.30;;;;;;4174029;28;20435;-55
2022/03/11 03:20:11;;;;;;;12.90;5.63;;;-7.90;92.90;;;;;;4171722;28;20037;-45
2022/03/11 03:22:12;;;;;;;14.02;5.85;;;-7.90;93.70;;;;;;4174202;28;20519;-65
2022/03/11 03:24:13;;;;;;;14.10;5.60;;;-8.00;93.00;;;;;;4173174;28;20041;-59
2022/03/11 03:26:14;;;;;;;13.68;6.20;;;-8.00;93.40;;;;;;4173929;28;20413;-46
2022/03/11 03:28:15;;;;;;;10.68;5.82;;;-8.00;92.70;;;;;;4172736;28;20063;-59
2022/03/11 03:30:17;;;;;;;15.68;5.88;;;-8.00;93.30;;;;;;4173676;28;20087;-44
2022/03/11 03:32:18;;;;;;;13.30;5.57;;;-8.10;93.40;;;;;;4173026;28;20051;-57
2022/03/11 03:34:19;;;;;;;18.67;7.90;;;-8.10;93.80;;;;;;4173283;28;20017;-63
2022/03/11 03:36:20;;;;;;;13.35;6.05;;;-8.20;94.70;;;;;;4173752;28;20421;-62
2022/03/11 03:38:21;;;;;;;14.32;6.03;;;-8.20;94.40;;;;;;4158709;28;20088;-83
2022/03/11 03:40:23;;;;;;;16.02;5.82;;;-8.20;95.10;;;;;;4157675;28;20063;-63
2022/03/11 03:42:26;;;;;;;17.25;6.07;;;-8.20;95.00;;;;;;4159711;28;20028;-53
2022/03/11 03:44:28;;;;;;;21.63;5.95;;;-8.20;94.70;;;;;;4155180;28;20049;-45
2022/03/11 03:46:29;;;;;;;12.90;5.78;;;-8.20;95.20;;;;;;4172637;28;20029;-48
2022/03/11 03:48:30;;;;;;;12.15;6.20;;;-8.20;95.50;;;;;;4155816;28;20552;-66
2022/03/11 03:50:31;;;;;;;12.18;5.68;;;-8.20;95.40;;;;;;4172708;28;20096;-62
2022/03/11 03:52:33;;;;;;;18.00;4.70;;;-8.20;95.10;;;;;;4173599;28;20094;-62
2022/03/11 03:54:34;;;;;;;15.90;5.75;;;-8.20;95.00;;;;;;4172111;28;20049;-65
2022/03/11 03:56:36;;;;;;;15.80;6.00;;;-8.20;95.40;;;;;;4173519;28;20087;-63
2022/03/11 03:58:38;;;;;;;10.93;5.55;;;-8.20;95.30;;;;;;4158235;28;20505;-61
2022/03/11 04:00:39;;;;;;;13.02;4.90;;;-8.20;95.10;;;;;;4156131;28;20103;-60
2022/03/11 04:02:51;;;;;;;16.15;6.00;;;-8.20;94.80;;;;;;4153636;28;20042;-54
2022/03/11 04:04:52;;;;;;;20.38;5.50;;;-8.20;95.00;;;;;;4156929;28;20041;-69
2022/03/11 04:06:53;;;;;;;12.05;5.07;;;-8.20;94.90;;;;;;4159264;28;20482;-46
2022/03/11 04:08:56;;;;;;;19.45;6.95;;;-8.30;94.80;;;;;;4156367;28;20037;-71
2022/03/11 04:10:57;;;;;;;16.27;7.07;;;-8.30;94.90;;;;;;4156013;28;20037;-49
2022/03/11 04:12:58;;;;;;;19.48;6.47;;;-8.40;94.90;;;;;;4155489;28;20842;-60
2022/03/11 04:14:59;;;;;;;17.70;7.05;;;-8.40;94.70;;;;;;4156922;28;20072;-61
2022/03/11 04:17:01;;;;;;;19.30;8.45;;;-8.40;95.30;;;;;;4157130;28;20492;-58
2022/03/11 04:19:02;;;;;;;22.58;9.75;;;-8.50;95.10;;;;;;4160257;28;20430;-62
2022/03/11 04:21:03;;;;;;;39.60;15.93;;;-8.50;95.70;;;;;;4157183;28;20045;-61
2022/03/11 04:23:04;;;;;;;43.70;18.38;;;-8.50;96.30;;;;;;4160975;28;20083;-62
2022/03/11 04:25:06;;;;;;;48.00;21.33;;;-8.50;96.90;;;;;;4158850;28;20021;-56
2022/03/11 04:27:08;;;;;;;38.90;17.13;;;-8.60;97.20;;;;;;4160178;28;20425;-69
2022/03/11 04:31:20;;;;;;;27.40;12.52;;;-8.50;97.80;;;;;;4259186;22;20103;-68
2022/03/11 04:33:22;;;;;;;26.70;13.45;;;-8.60;97.70;;;;;;4175300;28;20797;-65
2022/03/11 04:35:23;;;;;;;26.35;11.30;;;-8.50;97.90;;;;;;4176122;28;20025;-69
2022/03/11 04:37:24;;;;;;;19.40;8.40;;;-8.50;97.30;;;;;;4173230;28;20037;-61
2022/03/11 04:41:36;;;;;;;29.15;12.50;;;-8.50;96.90;;;;;;4238437;22;20060;-49
2022/03/11 04:43:37;;;;;;;20.15;10.02;;;-8.50;96.60;;;;;;4190940;28;20114;-65
2022/03/11 04:45:39;;;;;;;16.85;7.47;;;-8.50;96.60;;;;;;4174262;28;20029;-66
2022/03/11 04:47:40;;;;;;;15.05;6.07;;;-8.50;96.60;;;;;;4190168;28;20036;-57
2022/03/11 04:49:41;;;;;;;13.88;7.30;;;-8.40;96.60;;;;;;4189784;28;20037;-70
2022/03/11 04:51:43;;;;;;;13.82;6.25;;;-8.40;96.70;;;;;;4190709;28;20105;-54
2022/03/11 04:53:44;;;;;;;23.08;7.22;;;-8.40;96.80;;;;;;4192714;28;20032;-60
2022/03/11 04:55:45;;;;;;;15.80;5.88;;;-8.40;96.90;;;;;;4172047;28;20465;-48
2022/03/11 04:57:46;;;;;;;15.38;7.13;;;-8.40;97.10;;;;;;4175758;28;20033;-59
2022/03/11 04:59:47;;;;;;;21.00;6.95;;;-8.40;97.00;;;;;;4468211;22;20457;-42
2022/03/11 05:01:48;;;;;;;12.85;6.20;;;-8.40;97.20;;;;;;4167838;28;20523;-62
2022/03/11 05:03:49;;;;;;;18.83;6.80;;;-8.40;97.70;;;;;;4160598;28;20037;-85
2022/03/11 05:05:50;;;;;;;13.45;6.65;;;-8.20;97.30;;;;;;4164251;28;20147;-66
2022/03/11 05:07:52;;;;;;;19.63;7.47;;;-7.80;97.10;;;;;;4169336;28;20126;-50
2022/03/11 05:09:53;;;;;;;16.58;7.43;;;-7.40;96.70;;;;;;4158610;28;20154;-52
2022/03/11 05:11:54;;;;;;;15.93;6.82;;;-6.90;96.50;;;;;;4161072;28;20037;-57
2022/03/11 05:13:55;;;;;;;20.67;9.57;;;-6.60;96.10;;;;;;4173578;28;20107;-47
2022/03/11 05:15:56;;;;;;;20.02;8.68;;;-6.20;95.70;;;;;;4174267;28;20102;-59
2022/03/11 05:17:58;;;;;;;22.65;12.38;;;-5.80;94.90;;;;;;4175295;28;20075;-59
2022/03/11 05:19:59;;;;;;;15.50;7.88;;;-5.40;94.00;;;;;;4173859;28;20091;-68
2022/03/11 05:24:23;;;;;;;24.70;7.72;;;-4.50;93.00;;;;;;4165106;22;20103;-66
2022/03/11 05:26:28;;;;;;;18.60;8.43;;;-4.00;92.30;;;;;;4156220;28;20445;-71
2022/03/11 05:28:29;;;;;;;19.50;9.57;;;-3.60;91.00;;;;;;4483589;22;20224;-60
2022/03/11 05:30:31;;;;;;;19.63;9.45;;;-3.30;90.90;;;;;;4173365;28;20386;-52
2022/03/11 05:32:32;;;;;;;24.13;9.75;;;-3.00;89.60;;;;;;4173628;28;20032;-44
2022/03/11 05:34:37;;;;;;;29.05;12.32;;;-2.80;89.20;;;;;;4163683;28;20078;-66
2022/03/11 05:36:39;;;;;;;18.77;9.60;;;-2.60;87.60;;;;;;4172020;28;20107;-58
2022/03/11 05:38:40;;;;;;;23.35;8.52;;;-2.20;87.10;;;;;;4167968;28;20029;-52
2022/03/11 05:40:41;;;;;;;22.42;9.13;;;-1.80;86.40;;;;;;4168097;28;20049;-55
2022/03/11 05:42:43;;;;;;;20.53;8.83;;;-1.50;85.10;;;;;;4160738;28;20068;-61
2022/03/11 05:44:44;;;;;;;26.00;10.43;;;-1.20;84.20;;;;;;4173613;28;20352;-55
2022/03/11 05:46:47;;;;;;;20.23;7.80;;;-1.00;84.60;;;;;;4162778;28;20283;-51
2022/03/11 05:48:48;;;;;;;20.17;8.60;;;-0.60;82.50;;;;;;4169073;28;20254;-57
2022/03/11 05:50:49;;;;;;;22.00;8.23;;;-0.30;81.40;;;;;;4169620;28;20340;-47
2022/03/11 05:52:50;;;;;;;20.97;7.40;;;-0.30;80.20;;;;;;4173038;28;20261;-54
2022/03/11 05:54:52;;;;;;;17.70;7.30;;;-0.30;77.70;;;;;;4171470;28;20356;-60
2022/03/11 05:56:54;;;;;;;17.47;7.07;;;-0.50;76.50;;;;;;4188267;28;20254;-55
2022/03/11 05:58:56;;;;;;;13.90;7.00;;;-0.40;78.60;;;;;;4173359;28;21145;-57
2022/03/11 06:00:57;;;;;;;13.23;6.57;;;-0.30;77.90;;;;;;4173669;28;20286;-61
2022/03/11 06:02:58;;;;;;;15.40;6.43;;;-0.30;76.00;;;;;;4171623;28;20274;-57
2022/03/11 06:04:59;;;;;;;13.70;6.50;;;-0.40;74.90;;;;;;4172580;28;20298;-51
2022/03/11 06:07:00;;;;;;;13.67;7.10;;;-0.50;73.80;;;;;;4173433;28;20270;-62
2022/03/11 06:09:02;;;;;;;12.00;7.60;;;-0.70;72.90;;;;;;4174656;28;20356;-62
2022/03/11 06:11:03;;;;;;;15.10;8.60;;;-0.60;73.60;;;;;;4172963;28;20266;-55
2022/03/11 06:13:04;;;;;;;23.67;9.43;;;0.00;74.30;;;;;;4174409;28;20802;-67
2022/03/11 06:15:11;;;;;;;25.50;13.37;;;0.50;73.70;;;;;;4171949;28;20270;-75
2022/03/11 06:17:12;;;;;;;24.87;13.57;;;1.00;73.40;;;;;;4173608;28;20340;-56
2022/03/11 06:19:13;;;;;;;20.77;10.67;;;1.30;71.50;;;;;;4173398;28;20739;-57
2022/03/11 06:21:14;;;;;;;16.07;9.10;;;1.80;71.60;;;;;;4174060;28;20266;-55
2022/03/11 06:23:15;;;;;;;11.73;6.50;;;2.10;69.30;;;;;;4173092;28;20258;-57
2022/03/11 06:25:17;;;;;;;11.00;5.13;;;2.20;68.60;;;;;;4171761;28;20347;-78
2022/03/11 06:27:19;;;;;;;11.73;5.53;;;2.20;68.20;;;;;;4158399;28;20274;-66
2022/03/11 06:29:20;;;;;;;9.80;4.53;;;2.20;68.10;;;;;;4163019;28;20802;-68
2022/03/11 06:31:22;;;;;;;14.53;5.77;;;1.90;66.20;;;;;;4157614;28;20726;-47
2022/03/11 06:33:25;;;;;;;17.83;7.57;;;1.80;65.40;;;;;;4170565;28;20261;-70
2022/03/11 06:35:26;;;;;;;20.03;9.43;;;1.80;65.80;;;;;;4174497;28;20696;-69
2022/03/11 06:37:31;;;;;;;17.97;9.03;;;2.00;65.60;;;;;;4172314;28;20262;-67
2022/03/11 06:39:32;;;;;;;18.53;9.27;;;2.20;65.10;;;;;;4174790;28;20316;-70
2022/03/11 06:41:33;;;;;;;33.13;11.53;;;2.70;65.00;;;;;;4172526;28;20599;-66
2022/03/11 06:43:35;;;;;;;18.03;10.00;;;3.00;63.50;;;;;;4174313;28;20399;-68
2022/03/11 06:45:36;;;;;;;11.90;5.73;;;3.30;63.50;;;;;;4171805;28;20292;-60
2022/03/11 06:47:38;;;;;;;13.70;5.70;;;2.70;62.10;;;;;;4174445;28;20281;-52
2022/03/11 06:49:39;;;;;;;9.70;5.20;;;2.60;62.60;;;;;;4171192;28;20371;-64
2022/03/11 06:51:40;;;;;;;12.73;6.33;;;2.40;61.90;;;;;;4174680;28;20278;-67
2022/03/11 06:53:41;;;;;;;17.87;8.43;;;2.50;62.40;;;;;;4171889;28;20304;-64
2022/03/11 06:55:43;;;;;;;15.00;6.13;;;2.40;61.70;;;;;;4173584;28;20266;-68
2022/03/11 06:57:48;;;;;;;14.17;5.87;;;2.40;62.50;;;;;;4173729;28;20266;-55
2022/03/11 06:59:49;;;;;;;22.80;6.23;;;2.40;62.20;;;;;;4173741;28;20258;-57
2022/03/11 07:01:50;;;;;;;11.80;5.53;;;2.70;62.10;;;;;;4173959;28;20936;-65
2022/03/11 07:03:52;;;;;;;13.90;5.30;;;2.90;61.20;;;;;;4172366;28;20253;-68
2022/03/11 07:05:53;;;;;;;12.73;6.13;;;2.40;60.30;;;;;;4173805;28;20274;-59
2022/03/11 07:07:54;;;;;;;11.63;5.83;;;1.80;60.80;;;;;;4172435;28;20258;-67
2022/03/11 07:09:55;;;;;;;10.03;4.93;;;1.40;62.50;;;;;;4174552;28;20262;-67
2022/03/11 07:11:57;;;;;;;21.70;5.67;;;1.40;62.40;;;;;;4170833;28;20278;-73
2022/03/11 07:13:59;;;;;;;14.37;6.20;;;1.60;62.70;;;;;;4173292;28;20270;-53
2022/03/11 07:16:00;;;;;;;11.67;5.00;;;2.00;62.10;;;;;;4171331;28;20270;-60
2022/03/11 07:18:02;;;;;;;13.73;5.27;;;2.20;61.60;;;;;;4173553;28;20262;-67
2022/03/11 07:20:04;;;;;;;7.73;4.20;;;2.50;61.60;;;;;;4168058;28;20592;-67
2022/03/11 07:22:05;;;;;;;10.50;4.30;;;2.50;60.70;;;;;;4157463;28;20271;-67
2022/03/11 07:24:07;;;;;;;10.63;4.77;;;2.40;60.40;;;;;;4156587;28;20299;-54
2022/03/11 07:26:08;;;;;;;16.93;4.57;;;2.20;61.00;;;;;;4157133;28;20332;-58
2022/03/11 07:28:11;;;;;;;11.43;5.07;;;2.00;60.70;;;;;;4157236;28;20255;-55
2022/03/11 07:30:12;;;;;;;9.30;3.97;;;2.00;60.70;;;;;;4165668;28;20348;-59
2022/03/11 07:32:16;;;;;;;10.17;4.17;;;2.40;60.90;;;;;;4172168;28;21226;-44
2022/03/11 07:34:17;;;;;;;10.13;4.97;;;2.90;60.20;;;;;;4172306;28;20273;-63
2022/03/11 07:36:18;;;;;;;12.10;5.07;;;3.00;60.00;;;;;;4172798;28;20254;-64
2022/03/11 07:38:19;;;;;;;11.30;6.20;;;3.30;60.40;;;;;;4172470;28;20743;-62
2022/03/11 07:40:21;;;;;;;33.53;15.23;;;3.20;59.60;;;;;;4173495;28;20266;-63
2022/03/11 07:42:22;;;;;;;43.27;19.50;;;3.00;58.90;;;;;;4172340;28;20289;-51
2022/03/11 07:44:23;;;;;;;20.17;10.07;;;2.90;59.60;;;;;;4173390;28;20351;-60
2022/03/11 07:46:27;;;;;;;29.30;12.43;;;3.10;59.30;;;;;;4167679;28;20607;-68
2022/03/11 07:48:28;;;;;;;14.10;6.90;;;3.30;58.60;;;;;;4160847;28;20320;-82
2022/03/11 07:50:29;;;;;;;19.00;10.40;;;3.30;57.80;;;;;;4165598;28;20368;-88
2022/03/11 07:52:30;;;;;;;16.60;6.60;;;3.30;58.40;;;;;;4163297;28;20290;-53
2022/03/11 07:54:31;;;;;;;8.83;5.10;;;3.30;57.60;;;;;;4171893;28;20282;-76
2022/03/11 07:56:33;;;;;;;48.20;21.10;;;2.90;57.40;;;;;;4165702;28;20275;-84
2022/03/11 07:58:34;;;;;;;59.53;23.77;;;2.90;59.30;;;;;;4174764;28;20407;-59
2022/03/11 08:00:38;;;;;;;35.77;16.87;;;3.30;59.40;;;;;;4174868;28;20277;-66
2022/03/11 08:02:40;;;;;;;21.03;10.10;;;3.50;58.60;;;;;;4161546;28;20262;-89
2022/03/11 08:04:42;;;;;;;29.60;13.07;;;2.90;57.10;;;;;;4163952;28;20294;-61
2022/03/11 08:06:44;;;;;;;8.97;5.87;;;2.60;58.00;;;;;;4163531;28;20278;-54
2022/03/11 08:08:45;;;;;;;8.53;3.30;;;2.40;58.70;;;;;;4169621;28;20296;-57
2022/03/11 08:10:46;;;;;;;8.47;3.73;;;2.10;56.40;;;;;;4174930;28;20265;-67
2022/03/11 08:12:48;;;;;;;6.73;3.27;;;1.90;57.60;;;;;;4175108;28;20347;-62
2022/03/11 08:14:49;;;;;;;7.17;3.27;;;2.00;57.10;;;;;;4176542;28;20258;-59
2022/03/11 08:16:50;;;;;;;8.53;3.80;;;2.00;58.10;;;;;;4174621;28;20340;-61
2022/03/11 08:18:51;;;;;;;26.30;11.03;;;2.20;57.80;;;;;;4176185;28;20294;-65
2022/03/11 08:20:52;;;;;;;6.90;3.60;;;2.40;57.20;;;;;;4174810;28;20281;-48
2022/03/11 08:22:54;;;;;;;3.50;2.50;;;2.70;57.30;;;;;;4174610;28;20270;-76
2022/03/11 08:24:55;;;;;;;8.00;2.53;;;2.80;56.60;;;;;;4174171;28;20306;-57
2022/03/11 08:26:56;;;;;;;4.23;2.50;;;2.60;55.90;;;;;;4176122;28;20335;-54
2022/03/11 08:28:58;;;;;;;4.87;2.80;;;2.40;56.50;;;;;;4164424;28;20290;-59
2022/03/11 08:30:59;;;;;;;5.57;2.63;;;2.40;57.30;;;;;;4167986;28;20715;-58
2022/03/11 08:33:00;;;;;;;4.97;2.87;;;2.40;56.60;;;;;;4174540;28;20304;-47
2022/03/11 08:35:02;;;;;;;28.27;11.00;;;2.00;56.20;;;;;;4169960;28;20487;-49
2022/03/11 08:37:04;;;;;;;64.17;22.03;;;1.90;57.10;;;;;;4173780;28;20327;-61
2022/03/11 08:39:05;;;;;;;8.47;4.00;;;1.80;57.20;;;;;;4169951;28;20273;-66
2022/03/11 08:41:08;;;;;;;7.53;3.17;;;1.60;56.30;;;;;;4171592;28;20304;-55
2022/03/11 08:43:09;;;;;;;7.83;3.13;;;1.20;55.60;;;;;;4173223;28;20274;-51
2022/03/11 08:45:11;;;;;;;7.57;3.20;;;1.00;56.50;;;;;;4171240;28;20306;-63
2022/03/11 08:47:13;;;;;;;3.83;2.33;;;1.10;57.20;;;;;;4172541;28;20690;-81
2022/03/11 08:49:14;;;;;;;3.70;2.03;;;1.00;56.10;;;;;;4163626;28;20348;-62
2022/03/11 08:51:15;;;;;;;7.20;2.57;;;1.20;56.60;;;;;;4173984;28;20676;-62
2022/03/11 08:53:18;;;;;;;6.90;2.67;;;1.30;56.00;;;;;;4165397;28;20726;-57
2022/03/11 08:55:19;;;;;;;4.97;2.83;;;1.40;56.00;;;;;;4158356;28;20337;-59
2022/03/11 08:58:01;;;;;;;4.20;2.43;;;1.60;56.10;;;;;;4177634;28;20824;-72
2022/03/11 09:00:05;;;;;;;4.40;2.50;;;2.00;56.10;;;;;;4190513;28;20359;-56
2022/03/11 09:02:07;;;;;;;3.40;2.27;;;2.20;55.20;;;;;;4188383;28;20266;-59
2022/03/11 09:04:08;;;;;;;4.27;2.57;;;2.20;54.90;;;;;;4166070;28;20271;-52
2022/03/11 09:06:09;;;;;;;6.13;2.33;;;2.30;54.50;;;;;;4171662;28;20275;-58
2022/03/11 09:08:10;;;;;;;6.17;2.70;;;2.20;54.40;;;;;;4174028;28;20258;-50
2022/03/11 09:10:12;;;;;;;6.83;3.17;;;2.10;55.40;;;;;;4174610;28;20286;-52
2022/03/11 09:12:14;;;;;;;8.07;3.97;;;2.00;53.70;;;;;;4173042;28;20270;-67
2022/03/11 09:14:15;;;;;;;4.03;2.40;;;2.10;54.90;;;;;;4172341;28;20262;-48
2022/03/11 09:16:16;;;;;;;7.07;3.00;;;2.30;54.90;;;;;;4166814;28;20286;-80
2022/03/11 09:18:17;;;;;;;5.73;2.03;;;2.30;54.20;;;;;;4158836;28;20656;-54
2022/03/11 09:20:19;;;;;;;5.87;2.50;;;2.50;55.00;;;;;;4174515;28;20335;-64
2022/03/11 09:22:21;;;;;;;4.33;2.43;;;2.70;54.40;;;;;;4173794;28;20320;-48
2022/03/11 09:24:22;;;;;;;4.57;2.33;;;2.70;54.10;;;;;;4174721;28;20626;-55
2022/03/11 09:26:24;;;;;;;7.03;2.87;;;2.80;54.20;;;;;;4172731;28;20278;-51
2022/03/11 09:28:25;;;;;;;2.83;1.83;;;2.60;54.00;;;;;;4177863;28;20289;-60
2022/03/11 09:30:26;;;;;;;5.70;2.57;;;2.50;53.70;;;;;;4161096;28;20333;-65
2022/03/11 09:32:27;;;;;;;6.37;2.20;;;2.30;53.40;;;;;;4170286;28;20301;-53
2022/03/11 09:34:29;;;;;;;5.47;2.60;;;2.00;53.50;;;;;;4156546;28;20305;-80
2022/03/11 09:36:30;;;;;;;5.77;2.70;;;1.60;52.40;;;;;;4147406;28;20341;-49
2022/03/11 09:38:32;;;;;;;6.70;1.60;;;1.40;53.80;;;;;;4168484;28;20277;-47
2022/03/11 09:40:33;;;;;;;3.90;2.23;;;1.20;53.30;;;;;;4166242;28;20275;-49
2022/03/11 09:42:34;;;;;;;4.93;2.30;;;1.30;53.70;;;;;;4157300;28;20356;-55
2022/03/11 09:44:38;;;;;;;7.20;2.70;;;1.30;53.70;;;;;;4157514;28;20271;-50
2022/03/11 09:46:40;;;;;;;4.33;2.10;;;1.40;53.70;;;;;;4162518;28;20279;-49
2022/03/11 09:48:42;;;;;;;4.77;1.93;;;1.60;53.30;;;;;;4155919;28;20270;-69
2022/03/11 09:50:44;;;;;;;6.00;3.00;;;1.70;53.00;;;;;;4142271;28;20330;-66
2022/03/11 09:52:47;;;;;;;241.53;84.73;;;1.70;53.40;;;;;;4140649;28;20256;-66
2022/03/11 09:54:48;;;;;;;78.90;28.40;;;1.90;53.70;;;;;;4143177;28;20852;-52
2022/03/11 09:56:49;;;;;;;19.23;6.83;;;1.80;52.60;;;;;;4156800;28;20756;-67
2022/03/11 09:58:50;;;;;;;18.33;7.63;;;1.80;53.00;;;;;;4153480;28;20310;-65
2022/03/11 10:00:51;;;;;;;10.73;5.40;;;1.80;53.50;;;;;;4155377;28;20312;-61
2022/03/11 10:02:53;;;;;;;9.13;3.53;;;1.70;53.30;;;;;;4164130;28;20735;-61
2022/03/11 10:04:57;;;;;;;6.23;2.97;;;1.70;52.90;;;;;;4158145;28;20306;-55
2022/03/11 10:06:58;;;;;;;7.80;3.17;;;1.60;52.00;;;;;;4161147;28;20290;-79
2022/03/11 10:08:59;;;;;;;6.43;3.20;;;1.70;53.10;;;;;;4155284;28;20291;-61
2022/03/11 10:11:23;;;;;;;3.73;2.30;;;1.60;52.90;;;;;;4142620;28;20337;-52
2022/03/11 10:13:37;;;;;;;7.53;2.87;;;1.60;52.30;;;;;;4152476;28;20283;-66
2022/03/11 10:15:40;;;;;;;4.73;2.40;;;1.40;52.80;;;;;;4159927;28;20274;-57
2022/03/11 10:17:43;;;;;;;6.47;2.97;;;1.40;52.30;;;;;;4165285;28;20777;-63
2022/03/11 10:20:03;;;;;;;4.03;2.37;;;1.30;52.70;;;;;;4167362;28;20271;-48
2022/03/11 10:22:04;;;;;;;5.33;2.23;;;1.30;52.80;;;;;;4156152;28;20317;-56
2022/03/11 10:24:10;;;;;;;8.27;2.80;;;1.40;52.70;;;;;;4158787;28;20254;-68
2022/03/11 10:26:11;;;;;;;9.23;2.90;;;1.40;52.60;;;;;;4155063;28;20341;-51
2022/03/11 10:28:14;;;;;;;4.37;2.43;;;1.40;52.60;;;;;;4155875;28;20286;-53
2022/03/11 10:30:16;;;;;;;4.77;2.17;;;1.50;52.40;;;;;;4156279;28;20286;-59
2022/03/11 10:32:24;;;;;;;7.70;2.80;;;1.40;52.30;;;;;;4156604;28;20263;-63
2022/03/11 10:34:33;;;;;;;3.87;2.47;;;1.50;52.20;;;;;;4156651;28;20282;-54
2022/03/11 10:36:34;;;;;;;6.67;2.53;;;1.50;52.90;;;;;;4154171;28;20655;-68
2022/03/11 10:38:36;;;;;;;6.97;2.33;;;1.60;52.50;;;;;;4157503;28;20670;-60
2022/03/11 10:40:42;;;;;;;3.03;1.90;;;1.60;52.60;;;;;;4156948;28;20321;-74
2022/03/11 10:42:43;;;;;;;3.87;2.10;;;1.40;51.90;;;;;;4154902;28;20815;-76
2022/03/11 10:44:58;;;;;;;3.37;2.13;;;1.20;53.60;;;;;;4155300;28;20340;-66
2022/03/11 10:47:19;;;;;;;6.53;2.37;;;1.30;53.00;;;;;;4143952;28;20263;-69
2022/03/11 10:49:33;;;;;;;3.95;2.33;;;1.30;52.60;;;;;;4156490;28;20278;-46
2022/03/11 10:51:37;;;;;;;12.93;2.27;;;1.30;53.00;;;;;;4156854;28;20096;-61